createdAt,value
2022-08-02T00:01:00.960Z,9.95
2022-08-02T00:06:05.887Z,13.10
2022-08-02T00:11:09.277Z,12.93
2022-08-02T00:16:16.820Z,11.65
2022-08-02T00:21:21.949Z,8.35
2022-08-02T00:26:25.329Z,9.05
2022-08-02T00:31:28.652Z,10.48
2022-08-02T00:36:33.405Z,9.98
2022-08-02T00:41:46.628Z,10.90
2022-08-02T00:46:50.016Z,7.53
2022-08-02T00:51:54.805Z,9.02
2022-08-02T00:56:58.182Z,8.43
2022-08-02T01:02:01.678Z,9.55
2022-08-02T01:07:12.072Z,6.97
2022-08-02T01:12:16.924Z,8.93
2022-08-02T01:17:24.818Z,7.93
2022-08-02T01:23:01.724Z,8.85
2022-08-02T01:28:27.891Z,8.88
2022-08-02T01:33:37.407Z,10.45
2022-08-02T01:38:43.531Z,12.57
2022-08-02T01:43:50.942Z,10.75
2022-08-02T01:48:57.533Z,11.35
2022-08-02T01:54:01.005Z,9.63
2022-08-02T01:59:10.719Z,9.32
2022-08-02T02:04:17.086Z,7.85
2022-08-02T02:09:22.088Z,9.02
2022-08-02T02:14:29.571Z,10.57
2022-08-02T02:19:35.407Z,8.05
2022-08-02T02:24:38.783Z,7.10
2022-08-02T02:29:48.442Z,6.68
2022-08-02T02:34:53.862Z,8.18
2022-08-02T02:39:59.382Z,8.45
2022-08-02T02:45:05.770Z,7.78
2022-08-02T02:50:11.578Z,10.25
2022-08-02T02:55:15.599Z,7.20
2022-08-02T03:00:40.862Z,7.38
2022-08-02T03:05:44.262Z,10.32
2022-08-02T03:10:48.497Z,8.55
2022-08-02T03:15:54.725Z,9.52
2022-08-02T03:21:00.883Z,8.82
2022-08-02T03:26:04.443Z,10.07
2022-08-02T03:31:09.279Z,13.47
2022-08-02T03:36:15.007Z,12.93
2022-08-02T03:41:19.406Z,11.20
2022-08-02T03:51:28.734Z,10.70
2022-08-02T03:56:33.283Z,16.30
2022-08-02T04:01:38.041Z,11.82
2022-08-02T04:06:41.638Z,18.45
2022-08-02T04:11:45.218Z,16.30
2022-08-02T04:16:54.036Z,14.35
2022-08-02T04:22:01.116Z,13.73
2022-08-02T04:27:19.087Z,13.68
2022-08-02T04:32:32.155Z,13.35
2022-08-02T04:37:35.832Z,11.88
2022-08-02T04:42:39.934Z,13.32
2022-08-02T04:48:02.491Z,10.55
2022-08-02T04:53:07.079Z,15.00
2022-08-02T04:58:38.248Z,11.27
2022-08-02T05:03:35.284Z,12.07
2022-08-02T05:08:38.615Z,9.80
2022-08-02T05:13:59.279Z,10.93
2022-08-02T05:19:04.528Z,12.30
2022-08-02T05:24:08.713Z,7.75
2022-08-02T05:29:12.075Z,8.10
2022-08-02T05:34:16.955Z,9.95
2022-08-02T05:39:20.226Z,11.25
2022-08-02T05:44:24.527Z,8.13
2022-08-02T05:49:29.424Z,7.97
2022-08-02T05:54:42.802Z,8.27
2022-08-02T05:59:58.682Z,9.50
2022-08-02T06:05:06.960Z,8.77
2022-08-02T06:10:13.403Z,5.95
2022-08-02T06:15:18.755Z,9.38
2022-08-02T06:20:25.384Z,6.05
2022-08-02T06:25:50.616Z,5.97
2022-08-02T06:30:54.267Z,7.53
2022-08-02T06:36:05.187Z,6.25
2022-08-02T06:41:10.960Z,8.60
2022-08-02T06:47:09.230Z,3.53
2022-08-02T06:51:42.226Z,5.32
2022-08-02T06:56:46.815Z,5.65
2022-08-02T07:01:51.262Z,5.90
2022-08-02T07:06:57.116Z,4.50
2022-08-02T07:12:00.440Z,5.07
2022-08-02T07:17:03.940Z,6.80
2022-08-02T07:22:08.697Z,5.40
2022-08-02T07:27:12.878Z,4.70
2022-08-02T07:32:17.363Z,5.93
2022-08-02T07:37:54.176Z,5.90
2022-08-02T07:42:47.228Z,9.80
2022-08-02T07:47:51.514Z,8.23
2022-08-02T07:52:58.029Z,6.80
2022-08-02T07:58:01.617Z,7.05
2022-08-02T08:03:05.253Z,5.03
2022-08-02T08:08:15.245Z,7.30
2022-08-02T08:13:20.670Z,3.97
2022-08-02T08:18:24.212Z,6.97
2022-08-02T08:23:28.934Z,2.60
2022-08-02T08:28:32.374Z,4.03
2022-08-02T08:33:35.755Z,5.32
2022-08-02T08:38:40.591Z,5.63
2022-08-02T08:43:44.011Z,5.97
2022-08-02T08:48:50.514Z,5.40
2022-08-02T08:53:58.350Z,8.57
2022-08-02T08:59:01.866Z,5.47
2022-08-02T09:04:05.351Z,7.57
2022-08-02T09:09:10.460Z,5.80
2022-08-02T09:14:28.101Z,4.13
2022-08-02T09:19:31.442Z,5.70
2022-08-02T09:35:12.006Z,5.90
2022-08-02T09:45:20.375Z,6.93
2022-08-02T09:50:23.700Z,3.75
2022-08-02T10:00:52.029Z,7.50
2022-08-02T10:11:08.244Z,9.65
2022-08-02T10:16:12.043Z,5.47
2022-08-02T10:21:18.685Z,5.43
2022-08-02T10:26:23.737Z,9.98
2022-08-02T10:31:32.022Z,8.70
2022-08-02T10:36:36.241Z,6.18
2022-08-02T10:41:46.230Z,5.20
2022-08-02T10:46:49.651Z,3.92
2022-08-02T10:57:15.451Z,4.93
2022-08-02T11:02:42.916Z,6.80
2022-08-02T11:07:49.599Z,4.70
2022-08-02T11:13:06.899Z,5.38
2022-08-02T11:18:10.388Z,5.28
2022-08-02T11:23:44.568Z,7.18
2022-08-02T11:28:52.031Z,9.43
2022-08-02T11:33:56.094Z,3.53
2022-08-02T11:39:10.528Z,4.60
2022-08-02T11:44:15.362Z,7.50
2022-08-02T11:49:20.568Z,7.03
2022-08-02T11:54:25.782Z,6.75
2022-08-02T11:59:30.637Z,7.75
2022-08-02T12:04:34.203Z,4.30
2022-08-02T12:09:41.289Z,7.53
2022-08-02T12:14:46.439Z,5.30
2022-08-02T12:19:50.076Z,8.45
2022-08-02T12:24:55.922Z,4.40
2022-08-02T12:30:08.882Z,4.20
2022-08-02T12:35:14.057Z,4.10
2022-08-02T12:40:28.270Z,5.13
2022-08-02T12:45:48.674Z,6.63
2022-08-02T12:50:53.809Z,4.63
2022-08-02T13:01:08.327Z,6.30
2022-08-02T13:06:42.078Z,5.30
2022-08-02T13:11:35.119Z,4.15
2022-08-02T13:16:39.850Z,6.00
2022-08-02T13:22:02.691Z,4.25
2022-08-02T13:27:08.215Z,8.23
2022-08-02T13:32:14.434Z,6.68
2022-08-02T13:37:19.454Z,6.13
2022-08-02T13:42:23.135Z,7.53
2022-08-02T13:47:57.222Z,6.05
2022-08-02T13:52:51.919Z,5.50
2022-08-02T13:57:55.356Z,8.77
2022-08-02T14:03:00.186Z,5.32
2022-08-02T14:08:03.775Z,3.97
2022-08-02T14:13:07.645Z,5.40
2022-08-02T14:18:12.742Z,5.90
2022-08-02T14:23:16.109Z,4.90
2022-08-02T14:28:19.622Z,5.65
2022-08-02T14:38:27.722Z,6.90
2022-08-02T14:43:51.868Z,6.88
2022-08-02T14:48:56.876Z,5.82
2022-08-02T14:54:03.201Z,9.07
2022-08-02T14:59:07.530Z,5.28
2022-08-02T15:04:12.409Z,4.72
2022-08-02T15:09:15.931Z,6.85
2022-08-02T15:19:56.215Z,6.75
2022-08-02T15:24:54.785Z,4.57
2022-08-02T15:30:00.895Z,5.72
2022-08-02T15:35:06.824Z,6.10
2022-08-02T15:40:11.420Z,7.35
2022-08-02T15:45:15.799Z,5.40
2022-08-02T15:50:21.099Z,4.05
2022-08-02T15:55:24.632Z,5.82
2022-08-02T16:00:29.994Z,6.32
2022-08-02T16:05:34.981Z,9.35
2022-08-02T16:10:38.406Z,5.22
2022-08-02T16:15:41.914Z,8.07
2022-08-02T16:20:46.655Z,6.57
2022-08-02T16:25:50.062Z,8.55
2022-08-02T16:31:09.911Z,5.70
2022-08-02T16:36:19.545Z,5.32
2022-08-02T16:41:23.490Z,6.20
2022-08-02T16:46:46.793Z,6.55
2022-08-02T16:51:55.705Z,8.23
2022-08-02T16:56:59.109Z,4.82
2022-08-02T17:02:11.602Z,7.28
2022-08-02T17:08:08.395Z,5.10
2022-08-02T17:12:43.580Z,6.10
2022-08-02T17:22:53.241Z,11.57
2022-08-02T17:27:57.191Z,9.70
2022-08-02T17:33:00.644Z,8.65
2022-08-02T17:38:06.306Z,8.93
2022-08-02T17:43:14.809Z,12.90
2022-08-02T17:48:20.095Z,10.00
2022-08-02T17:53:36.296Z,13.35
2022-08-02T17:58:51.848Z,15.82
2022-08-02T18:03:57.447Z,16.77
2022-08-02T18:09:03.090Z,10.88
2022-08-02T18:14:08.891Z,13.48
2022-08-02T18:19:16.855Z,12.53
2022-08-02T18:24:24.210Z,14.00
2022-08-02T18:29:30.184Z,13.25
2022-08-02T18:34:44.428Z,11.18
2022-08-02T18:39:52.536Z,10.00
2022-08-02T18:44:55.906Z,8.48
2022-08-02T18:50:00.403Z,15.90
2022-08-02T18:55:17.050Z,10.20
2022-08-02T19:00:25.784Z,13.77
2022-08-02T19:05:53.332Z,15.48
2022-08-02T19:10:56.394Z,8.35
2022-08-02T19:16:00.897Z,10.02
2022-08-02T19:21:05.500Z,13.57
2022-08-02T19:26:10.621Z,16.27
2022-08-02T19:31:14.098Z,14.52
2022-08-02T19:36:18.263Z,17.97
2022-08-02T19:41:23.579Z,15.52
2022-08-02T19:46:27.070Z,16.73
2022-08-02T19:51:49.983Z,16.33
2022-08-02T19:56:55.799Z,16.45
2022-08-02T20:02:01.123Z,14.95
2022-08-02T20:12:10.782Z,11.93
2022-08-02T20:17:14.811Z,14.80
2022-08-02T20:22:18.614Z,18.48
2022-08-02T20:27:27.209Z,16.83
2022-08-02T20:32:33.536Z,11.10
2022-08-02T20:37:56.072Z,14.25
2022-08-02T20:43:01.974Z,11.13
2022-08-02T20:48:07.072Z,13.18
2022-08-02T20:53:23.797Z,19.20
2022-08-02T20:58:30.985Z,11.80
2022-08-02T21:03:39.981Z,13.23
2022-08-02T21:08:45.960Z,14.63
2022-08-02T21:14:08.699Z,15.05
2022-08-02T21:19:13.303Z,13.52
2022-08-02T21:24:16.706Z,16.88
2022-08-02T21:29:21.427Z,15.70
2022-08-02T21:34:27.380Z,17.35
2022-08-02T21:39:32.440Z,13.23
2022-08-02T21:44:37.201Z,18.77
2022-08-02T21:50:13.500Z,15.80
2022-08-02T21:55:07.983Z,11.55
2022-08-02T22:00:28.370Z,14.15
2022-08-02T22:05:37.200Z,11.65
2022-08-02T22:10:54.615Z,11.77
2022-08-02T22:16:00.128Z,18.95
2022-08-02T22:21:14.250Z,14.50
2022-08-02T22:26:19.989Z,17.23
2022-08-02T22:31:40.973Z,17.63
2022-08-02T22:36:45.774Z,16.30
2022-08-02T22:42:05.769Z,17.15
2022-08-02T22:47:14.759Z,12.02
2022-08-02T22:52:20.929Z,13.68
2022-08-02T22:57:30.734Z,14.30
2022-08-02T23:02:36.214Z,13.70
2022-08-02T23:07:41.690Z,13.70
2022-08-02T23:12:45.051Z,15.13
2022-08-02T23:18:07.105Z,21.45
2022-08-02T23:23:11.612Z,14.77
2022-08-02T23:28:15.219Z,16.27
2022-08-02T23:33:20.006Z,15.43
2022-08-02T23:38:23.349Z,10.85
2022-08-02T23:43:26.681Z,14.60
2022-08-02T23:48:31.631Z,13.98
2022-08-02T23:53:35.046Z,14.25
2022-08-02T23:58:41.814Z,11.25
